Time;durP1;ratioP1;P1;durP2;ratioP2;P2;SDS_P1;SDS_P2;PMS_P1;PMS_P2;Temp;Humidity;BMP_temperature;BMP_pressure;BME280_temperature;BME280_humidity;BME280_pressure;Samples;Min_cycle;Max_cycle;Signal;HPM_P1;HPM_P2
2023/07/16 00:01:04;;;;;;;9.48;5.80;;;;;;;;;;5094884;28;20026;-61
2023/07/16 00:03:30;;;;;;;9.95;6.05;;;;;;;;;;5085615;28;20117;-62
2023/07/16 00:05:57;;;;;;;12.73;6.73;;;;;;;;;;5086469;28;20024;-62
2023/07/16 00:08:22;;;;;;;11.60;6.80;;;;;;;;;;5085300;28;20475;-62
2023/07/16 00:10:48;;;;;;;11.15;6.28;;;;;;;;;;5087258;28;20124;-62
2023/07/16 00:13:13;;;;;;;8.67;6.27;;;;;;;;;;5086687;28;20028;-62
2023/07/16 00:15:41;;;;;;;8.50;5.82;;;;;;;;;;5082699;28;20023;-61
2023/07/16 00:18:06;;;;;;;13.90;6.75;;;;;;;;;;5082353;28;20044;-62
2023/07/16 00:20:32;;;;;;;9.55;6.43;;;;;;;;;;5082114;28;20023;-62
2023/07/16 00:22:57;;;;;;;9.27;6.35;;;;;;;;;;5086106;28;20010;-61
2023/07/16 00:25:22;;;;;;;10.53;6.43;;;;;;;;;;5081742;28;20667;-61
2023/07/16 00:27:48;;;;;;;9.48;6.38;;;;;;;;;;5090937;28;20299;-62
2023/07/16 00:30:13;;;;;;;10.80;6.53;;;;;;;;;;5087036;28;20682;-62
2023/07/16 00:32:40;;;;;;;11.40;6.90;;;;;;;;;;5096320;28;20074;-63
2023/07/16 00:35:06;;;;;;;11.88;6.40;;;;;;;;;;5079584;28;20027;-62
2023/07/16 00:37:31;;;;;;;10.82;6.20;;;;;;;;;;5094720;28;20016;-61
2023/07/16 00:39:59;;;;;;;12.93;6.97;;;;;;;;;;5081472;28;20465;-62
2023/07/16 00:42:24;;;;;;;9.20;6.43;;;;;;;;;;5086577;28;20030;-62
2023/07/16 00:44:50;;;;;;;9.30;6.60;;;;;;;;;;5080448;28;20020;-60
2023/07/16 00:47:15;;;;;;;11.45;6.15;;;;;;;;;;5088138;28;20834;-62
2023/07/16 00:49:40;;;;;;;11.90;6.60;;;;;;;;;;5087743;28;20466;-63
2023/07/16 00:52:07;;;;;;;9.50;6.70;;;;;;;;;;5085312;28;20111;-62
2023/07/16 00:54:33;;;;;;;13.10;6.65;;;;;;;;;;5088664;28;20028;-61
2023/07/16 00:56:58;;;;;;;10.55;6.30;;;;;;;;;;5081741;28;20102;-62
2023/07/16 00:59:24;;;;;;;12.10;6.78;;;;;;;;;;5085202;28;20055;-62
2023/07/16 01:01:49;;;;;;;9.88;6.00;;;;;;;;;;5082059;28;20011;-62
2023/07/16 01:04:15;;;;;;;8.48;6.05;;;;;;;;;;5079793;28;20020;-61
2023/07/16 01:06:43;;;;;;;11.43;6.60;;;;;;;;;;5087309;28;20024;-61
2023/07/16 01:09:21;;;;;;;13.38;7.18;;;;;;;;;;5080340;28;20039;-62
2023/07/16 01:11:47;;;;;;;11.65;7.32;;;;;;;;;;5089463;28;20015;-62
2023/07/16 01:14:13;;;;;;;11.98;7.32;;;;;;;;;;5082745;28;20080;-61
2023/07/16 01:16:39;;;;;;;11.82;7.30;;;;;;;;;;5079781;28;20033;-61
2023/07/16 01:19:04;;;;;;;12.00;6.88;;;;;;;;;;5078499;28;20109;-61
2023/07/16 01:21:39;;;;;;;12.23;7.53;;;;;;;;;;5089310;28;20016;-61
2023/07/16 01:24:27;;;;;;;13.27;6.93;;;;;;;;;;5083506;28;20035;-62
2023/07/16 01:27:11;;;;;;;9.70;6.57;;;;;;;;;;5071363;28;20030;-62
2023/07/16 01:29:46;;;;;;;12.38;7.30;;;;;;;;;;5095351;28;20054;-63
2023/07/16 01:32:12;;;;;;;12.55;6.28;;;;;;;;;;5088220;28;20019;-61
2023/07/16 01:34:40;;;;;;;10.15;6.63;;;;;;;;;;5090103;28;20038;-61
2023/07/16 01:37:05;;;;;;;11.18;7.00;;;;;;;;;;5091172;28;20015;-62
2023/07/16 01:39:32;;;;;;;11.00;6.93;;;;;;;;;;5086327;28;20023;-61
2023/07/16 01:41:57;;;;;;;11.15;7.45;;;;;;;;;;5094726;28;20257;-63
2023/07/16 01:44:23;;;;;;;11.48;7.28;;;;;;;;;;5085144;28;20049;-61
2023/07/16 01:46:53;;;;;;;9.80;6.97;;;;;;;;;;5095165;28;20095;-61
2023/07/16 01:49:21;;;;;;;8.95;7.18;;;;;;;;;;5083947;28;20093;-61
2023/07/16 01:51:46;;;;;;;12.13;7.32;;;;;;;;;;5089036;28;20042;-62
2023/07/16 01:54:14;;;;;;;9.37;7.27;;;;;;;;;;5089395;28;20475;-62
2023/07/16 01:56:39;;;;;;;12.88;7.10;;;;;;;;;;5081735;28;20016;-61
2023/07/16 01:59:04;;;;;;;10.37;7.17;;;;;;;;;;5093632;28;20080;-62
2023/07/16 02:01:30;;;;;;;10.33;7.00;;;;;;;;;;5083124;28;20027;-61
2023/07/16 02:03:55;;;;;;;10.50;6.60;;;;;;;;;;5093195;28;20031;-62
2023/07/16 02:06:20;;;;;;;9.43;6.77;;;;;;;;;;5090568;28;21032;-61
2023/07/16 02:08:48;;;;;;;11.60;7.13;;;;;;;;;;5096333;28;20284;-61
2023/07/16 02:11:13;;;;;;;11.40;7.55;;;;;;;;;;5083763;28;20024;-62
2023/07/16 02:13:40;;;;;;;12.03;7.33;;;;;;;;;;5088013;28;20149;-61
2023/07/16 02:16:06;;;;;;;12.45;7.20;;;;;;;;;;5087612;28;20290;-62
2023/07/16 02:18:31;;;;;;;11.43;7.73;;;;;;;;;;5081292;28;20051;-60
2023/07/16 02:20:57;;;;;;;12.55;7.45;;;;;;;;;;5093966;28;20043;-62
2023/07/16 02:23:23;;;;;;;15.97;7.57;;;;;;;;;;5085223;28;20461;-61
2023/07/16 02:25:48;;;;;;;11.85;7.80;;;;;;;;;;5090352;28;20387;-62
2023/07/16 02:28:13;;;;;;;10.53;7.30;;;;;;;;;;5085230;28;20069;-62
2023/07/16 02:30:41;;;;;;;11.50;7.73;;;;;;;;;;5085142;28;20072;-62
2023/07/16 02:33:06;;;;;;;10.27;7.22;;;;;;;;;;5091878;28;20055;-62
2023/07/16 02:35:31;;;;;;;13.50;7.63;;;;;;;;;;5082971;28;20126;-61
2023/07/16 02:37:57;;;;;;;11.97;7.37;;;;;;;;;;5095811;28;20050;-61
2023/07/16 02:40:22;;;;;;;9.90;7.40;;;;;;;;;;5079584;28;20110;-61
2023/07/16 02:42:47;;;;;;;11.32;7.10;;;;;;;;;;5092043;28;20081;-60
2023/07/16 02:45:13;;;;;;;10.87;7.17;;;;;;;;;;5086950;28;20091;-61
2023/07/16 02:47:40;;;;;;;11.47;7.80;;;;;;;;;;5090599;28;20101;-62
2023/07/16 02:50:08;;;;;;;13.55;7.90;;;;;;;;;;5088621;28;20055;-62
2023/07/16 02:52:36;;;;;;;11.30;7.60;;;;;;;;;;5088026;28;20501;-62
2023/07/16 02:55:02;;;;;;;10.95;7.50;;;;;;;;;;5086380;28;20028;-62
2023/07/16 02:57:28;;;;;;;12.43;7.47;;;;;;;;;;5082935;28;20870;-62
2023/07/16 02:59:53;;;;;;;12.00;7.63;;;;;;;;;;5087597;28;20028;-62
2023/07/16 03:02:18;;;;;;;9.93;7.27;;;;;;;;;;5078142;28;20082;-62
2023/07/16 03:04:43;;;;;;;12.93;7.18;;;;;;;;;;5091402;27;20020;-62
2023/07/16 03:07:11;;;;;;;10.43;7.87;;;;;;;;;;5079066;28;20016;-62
2023/07/16 03:09:36;;;;;;;10.27;7.68;;;;;;;;;;5090827;27;20138;-61
2023/07/16 03:12:01;;;;;;;10.23;7.43;;;;;;;;;;5089202;28;20026;-62
2023/07/16 03:14:29;;;;;;;13.13;7.50;;;;;;;;;;5090812;28;20766;-61
2023/07/16 03:16:59;;;;;;;13.40;7.60;;;;;;;;;;5085758;28;20113;-62
2023/07/16 03:19:24;;;;;;;13.30;8.27;;;;;;;;;;5087118;28;20032;-62
2023/07/16 03:21:52;;;;;;;12.83;7.43;;;;;;;;;;5091705;28;20461;-63
2023/07/16 03:24:17;;;;;;;10.02;7.85;;;;;;;;;;5081507;28;20027;-61
2023/07/16 03:26:43;;;;;;;11.10;7.27;;;;;;;;;;5091735;28;20019;-63
2023/07/16 03:29:08;;;;;;;11.27;7.60;;;;;;;;;;5082779;28;20028;-63
2023/07/16 03:31:33;;;;;;;9.30;7.03;;;;;;;;;;5092255;28;20295;-62
2023/07/16 03:33:58;;;;;;;11.57;7.32;;;;;;;;;;5086572;28;20051;-63
2023/07/16 03:36:24;;;;;;;11.63;7.53;;;;;;;;;;5086720;28;20139;-62
2023/07/16 03:38:51;;;;;;;10.50;7.13;;;;;;;;;;5088086;28;20057;-62
2023/07/16 03:41:16;;;;;;;12.15;7.35;;;;;;;;;;5086390;28;20623;-62
2023/07/16 03:43:44;;;;;;;13.70;9.00;;;;;;;;;;5088327;28;20015;-61
2023/07/16 03:46:09;;;;;;;10.18;8.15;;;;;;;;;;5078453;28;20588;-61
2023/07/16 03:48:37;;;;;;;12.30;7.27;;;;;;;;;;5093518;28;20035;-61
2023/07/16 03:51:03;;;;;;;11.90;8.13;;;;;;;;;;5082467;28;20020;-62
2023/07/16 03:53:28;;;;;;;9.87;7.03;;;;;;;;;;5086459;28;20026;-62
2023/07/16 03:55:54;;;;;;;11.20;7.73;;;;;;;;;;5083321;28;20259;-63
2023/07/16 03:58:19;;;;;;;12.77;7.63;;;;;;;;;;5095042;28;20096;-62
2023/07/16 04:00:44;;;;;;;12.60;8.17;;;;;;;;;;5091008;28;20095;-62
2023/07/16 04:03:09;;;;;;;10.80;8.10;;;;;;;;;;5079808;28;20031;-62
2023/07/16 04:05:35;;;;;;;10.53;7.63;;;;;;;;;;5092820;28;20039;-62
2023/07/16 04:08:00;;;;;;;12.63;7.57;;;;;;;;;;5085494;28;20361;-60
2023/07/16 04:10:27;;;;;;;11.03;7.43;;;;;;;;;;5087763;28;20282;-59
2023/07/16 04:12:52;;;;;;;11.85;7.70;;;;;;;;;;5082183;28;20022;-60
2023/07/16 04:15:20;;;;;;;12.07;7.67;;;;;;;;;;5085808;28;20245;-60
2023/07/16 04:17:45;;;;;;;11.77;8.02;;;;;;;;;;5085544;28;20051;-59
2023/07/16 04:20:11;;;;;;;11.60;7.23;;;;;;;;;;5087888;28;20023;-61
2023/07/16 04:22:38;;;;;;;10.30;7.80;;;;;;;;;;5076605;28;20249;-59
2023/07/16 04:25:06;;;;;;;10.07;7.70;;;;;;;;;;5070620;28;20020;-59
2023/07/16 04:27:31;;;;;;;11.90;8.13;;;;;;;;;;5090159;28;20108;-60
2023/07/16 04:29:59;;;;;;;10.00;7.85;;;;;;;;;;5084410;28;20739;-59
2023/07/16 04:32:27;;;;;;;11.88;8.00;;;;;;;;;;5092501;28;20406;-60
2023/07/16 04:34:52;;;;;;;11.10;7.82;;;;;;;;;;5086114;28;20027;-60
2023/07/16 04:37:17;;;;;;;11.13;8.35;;;;;;;;;;5086018;28;20035;-60
2023/07/16 04:39:42;;;;;;;10.50;7.83;;;;;;;;;;5081713;28;20103;-59
2023/07/16 04:42:08;;;;;;;13.17;8.10;;;;;;;;;;5085291;28;20269;-59
2023/07/16 04:44:33;;;;;;;12.20;7.80;;;;;;;;;;5088028;28;20430;-60
2023/07/16 04:46:58;;;;;;;9.70;7.17;;;;;;;;;;5088081;28;20019;-60
2023/07/16 04:49:23;;;;;;;11.23;6.50;;;;;;;;;;5089277;28;20028;-58
2023/07/16 04:51:49;;;;;;;12.33;7.33;;;;;;;;;;5085734;28;20253;-60
2023/07/16 04:54:14;;;;;;;11.00;7.23;;;;;;;;;;5086949;28;20177;-58
2023/07/16 04:56:39;;;;;;;10.40;7.23;;;;;;;;;;5084536;28;20094;-59
2023/07/16 04:59:04;;;;;;;9.17;7.60;;;;;;;;;;5088600;28;20024;-60
2023/07/16 05:01:32;;;;;;;12.57;7.53;;;;;;;;;;5089363;28;20023;-59
2023/07/16 05:03:57;;;;;;;11.27;7.22;;;;;;;;;;5088505;28;20306;-59
2023/07/16 05:06:22;;;;;;;12.03;7.40;;;;;;;;;;5090459;28;20080;-60
2023/07/16 05:08:48;;;;;;;12.77;7.37;;;;;;;;;;5088375;28;20306;-59
2023/07/16 05:11:13;;;;;;;9.37;7.07;;;;;;;;;;5095346;28;20394;-59
2023/07/16 05:13:38;;;;;;;10.37;7.80;;;;;;;;;;5085813;28;20016;-59
2023/07/16 05:16:04;;;;;;;11.07;7.47;;;;;;;;;;5090471;28;20345;-60
2023/07/16 05:18:36;;;;;;;10.35;7.38;;;;;;;;;;5089622;28;20330;-59
2023/07/16 05:21:01;;;;;;;12.00;7.78;;;;;;;;;;5086886;28;20047;-60
2023/07/16 05:23:27;;;;;;;11.77;7.60;;;;;;;;;;5092288;28;20099;-60
2023/07/16 05:25:52;;;;;;;11.45;7.63;;;;;;;;;;5089379;28;20039;-62
2023/07/16 05:28:18;;;;;;;10.13;7.60;;;;;;;;;;5092649;28;20575;-60
2023/07/16 05:30:43;;;;;;;10.70;7.60;;;;;;;;;;5092030;28;20072;-59
2023/07/16 05:33:10;;;;;;;9.77;7.37;;;;;;;;;;5093024;28;20066;-60
2023/07/16 05:35:35;;;;;;;11.60;7.10;;;;;;;;;;5092139;28;20810;-60
2023/07/16 05:38:00;;;;;;;10.93;7.20;;;;;;;;;;5088793;28;20104;-60
2023/07/16 05:40:29;;;;;;;11.90;7.63;;;;;;;;;;5091450;28;20102;-60
2023/07/16 05:42:54;;;;;;;10.67;7.40;;;;;;;;;;5092416;28;20030;-60
2023/07/16 05:45:19;;;;;;;12.97;7.93;;;;;;;;;;5091631;28;20371;-59
2023/07/16 05:47:44;;;;;;;12.57;7.53;;;;;;;;;;5085267;28;20249;-59
2023/07/16 05:50:10;;;;;;;10.87;7.40;;;;;;;;;;5095997;28;20855;-60
2023/07/16 05:52:35;;;;;;;10.90;7.87;;;;;;;;;;5089539;28;20357;-61
2023/07/16 05:55:02;;;;;;;9.17;7.63;;;;;;;;;;5090475;28;20035;-59
2023/07/16 05:57:27;;;;;;;13.57;8.18;;;;;;;;;;5089645;28;20031;-59
2023/07/16 05:59:53;;;;;;;12.97;7.83;;;;;;;;;;5085209;28;20020;-58
2023/07/16 06:02:18;;;;;;;10.98;7.85;;;;;;;;;;5088001;28;20027;-59
2023/07/16 06:04:44;;;;;;;11.93;8.03;;;;;;;;;;5092292;28;20538;-59
2023/07/16 06:07:09;;;;;;;12.37;8.40;;;;;;;;;;5085060;28;20245;-57
2023/07/16 06:09:36;;;;;;;11.50;8.43;;;;;;;;;;5087250;28;20023;-60
2023/07/16 06:12:02;;;;;;;10.88;8.40;;;;;;;;;;5085810;28;20341;-59
2023/07/16 06:14:30;;;;;;;11.65;7.80;;;;;;;;;;5087200;28;20012;-61
2023/07/16 06:16:57;;;;;;;12.85;8.00;;;;;;;;;;5092972;28;20019;-60
2023/07/16 06:19:23;;;;;;;12.35;8.75;;;;;;;;;;5089631;27;20493;-61
2023/07/16 06:21:48;;;;;;;11.73;8.40;;;;;;;;;;5091442;28;20037;-59
2023/07/16 06:24:13;;;;;;;12.23;8.40;;;;;;;;;;5091898;28;20057;-59
2023/07/16 06:26:39;;;;;;;10.07;7.97;;;;;;;;;;5087028;28;20288;-59
2023/07/16 06:29:04;;;;;;;12.43;8.13;;;;;;;;;;5090007;28;21115;-60
2023/07/16 06:31:32;;;;;;;9.93;7.43;;;;;;;;;;5080546;28;20262;-60
2023/07/16 06:33:57;;;;;;;11.27;7.32;;;;;;;;;;5093639;28;20058;-60
2023/07/16 06:36:22;;;;;;;10.53;7.10;;;;;;;;;;5085645;28;20418;-59
2023/07/16 06:38:50;;;;;;;11.17;7.50;;;;;;;;;;5092630;28;20265;-60
2023/07/16 06:41:15;;;;;;;12.57;7.72;;;;;;;;;;5088441;28;20045;-60
2023/07/16 06:43:40;;;;;;;9.93;7.30;;;;;;;;;;5086413;28;20516;-60
2023/07/16 06:46:06;;;;;;;11.00;7.33;;;;;;;;;;5091891;28;20050;-61
2023/07/16 06:48:35;;;;;;;10.55;7.50;;;;;;;;;;5089400;28;20859;-59
2023/07/16 06:51:01;;;;;;;10.40;7.65;;;;;;;;;;5088120;28;20027;-59
2023/07/16 06:53:28;;;;;;;11.97;7.83;;;;;;;;;;5084183;28;20772;-58
2023/07/16 06:55:53;;;;;;;10.60;7.75;;;;;;;;;;5093844;28;20074;-59
2023/07/16 06:58:19;;;;;;;12.20;7.60;;;;;;;;;;5085189;28;20100;-59
2023/07/16 07:00:44;;;;;;;14.10;7.73;;;;;;;;;;5088829;28;20037;-59
2023/07/16 07:03:09;;;;;;;11.93;7.93;;;;;;;;;;5087559;28;20089;-60
2023/07/16 07:05:36;;;;;;;12.67;7.63;;;;;;;;;;5086779;28;20099;-59
2023/07/16 07:08:02;;;;;;;10.52;7.07;;;;;;;;;;5082583;28;20034;-59
2023/07/16 07:10:27;;;;;;;9.35;6.70;;;;;;;;;;5095420;28;20024;-60
2023/07/16 07:12:52;;;;;;;10.53;6.87;;;;;;;;;;5089838;28;20020;-62
2023/07/16 07:15:17;;;;;;;9.30;7.20;;;;;;;;;;5090653;28;20578;-60
2023/07/16 07:17:46;;;;;;;9.77;7.00;;;;;;;;;;5085938;28;20093;-60
2023/07/16 07:20:11;;;;;;;10.88;6.97;;;;;;;;;;5086403;28;20425;-60
2023/07/16 07:22:37;;;;;;;11.10;7.35;;;;;;;;;;5088902;28;20024;-60
2023/07/16 07:25:02;;;;;;;12.43;7.00;;;;;;;;;;5085953;28;20024;-60
2023/07/16 07:27:27;;;;;;;9.55;7.20;;;;;;;;;;5088115;28;20355;-59
2023/07/16 07:29:55;;;;;;;12.45;6.80;;;;;;;;;;5079720;28;20679;-59
2023/07/16 07:32:21;;;;;;;10.55;6.72;;;;;;;;;;5092188;28;20015;-60
2023/07/16 07:34:46;;;;;;;11.77;7.13;;;;;;;;;;5078997;28;20031;-61
2023/07/16 07:37:11;;;;;;;10.83;6.43;;;;;;;;;;5084538;28;20425;-60
2023/07/16 07:39:36;;;;;;;9.57;6.80;;;;;;;;;;5083647;28;20280;-60
2023/07/16 07:42:02;;;;;;;11.47;7.30;;;;;;;;;;5082792;28;20585;-60
2023/07/16 07:44:27;;;;;;;12.23;7.55;;;;;;;;;;5085727;28;20032;-60
2023/07/16 07:46:52;;;;;;;11.83;6.87;;;;;;;;;;5082759;28;20066;-60
2023/07/16 07:49:17;;;;;;;10.77;7.17;;;;;;;;;;5089349;28;20034;-58
2023/07/16 07:51:43;;;;;;;14.50;7.40;;;;;;;;;;5080848;28;20115;-59
2023/07/16 07:54:10;;;;;;;10.37;6.67;;;;;;;;;;5090863;28;20054;-60
2023/07/16 07:56:35;;;;;;;12.13;7.28;;;;;;;;;;5079068;28;20024;-59
2023/07/16 07:59:01;;;;;;;12.05;7.47;;;;;;;;;;5089548;28;20028;-61
2023/07/16 08:01:29;;;;;;;11.20;7.17;;;;;;;;;;5086326;28;20016;-60
2023/07/16 08:03:54;;;;;;;10.83;6.90;;;;;;;;;;5084578;28;20039;-60
2023/07/16 08:06:26;;;;;;;9.15;6.60;;;;;;;;;;5083804;28;20114;-60
2023/07/16 08:08:53;;;;;;;9.35;6.25;;;;;;;;;;5089252;28;20027;-60
2023/07/16 08:11:18;;;;;;;11.55;6.63;;;;;;;;;;5086475;28;21197;-59
2023/07/16 08:13:49;;;;;;;9.30;6.73;;;;;;;;;;5090341;28;20149;-60
2023/07/16 08:16:14;;;;;;;9.75;6.18;;;;;;;;;;5087333;28;20382;-58
2023/07/16 08:18:39;;;;;;;9.57;6.32;;;;;;;;;;5086226;28;20584;-59
2023/07/16 08:21:07;;;;;;;10.13;6.47;;;;;;;;;;5077766;28;20023;-59
2023/07/16 08:23:32;;;;;;;10.50;6.90;;;;;;;;;;5084455;28;20320;-60
2023/07/16 08:25:58;;;;;;;8.40;5.83;;;;;;;;;;5085425;28;20102;-59
2023/07/16 08:28:28;;;;;;;10.77;6.40;;;;;;;;;;5083574;28;20023;-59
2023/07/16 08:30:53;;;;;;;9.40;6.03;;;;;;;;;;5093230;28;20012;-60
2023/07/16 08:33:18;;;;;;;9.47;6.60;;;;;;;;;;5084795;28;20020;-59
2023/07/16 08:35:46;;;;;;;10.67;6.50;;;;;;;;;;5086409;28;20016;-59
2023/07/16 08:38:11;;;;;;;9.93;6.32;;;;;;;;;;5094500;28;20275;-60
2023/07/16 08:40:37;;;;;;;11.73;6.60;;;;;;;;;;5092597;28;20016;-60
2023/07/16 08:43:06;;;;;;;8.45;5.97;;;;;;;;;;5089980;28;20250;-59
2023/07/16 08:45:33;;;;;;;9.77;5.82;;;;;;;;;;5089610;28;20039;-60
2023/07/16 08:47:58;;;;;;;9.73;6.47;;;;;;;;;;5093901;28;20016;-60
2023/07/16 08:50:26;;;;;;;9.48;6.25;;;;;;;;;;5092593;28;20035;-60
2023/07/16 08:52:53;;;;;;;10.02;6.30;;;;;;;;;;5088964;28;20024;-60
2023/07/16 08:55:18;;;;;;;11.60;7.47;;;;;;;;;;5084805;28;21179;-60
2023/07/16 08:57:44;;;;;;;10.50;6.93;;;;;;;;;;5095901;28;20034;-60
2023/07/16 09:00:10;;;;;;;9.88;6.85;;;;;;;;;;5091088;28;20253;-60
2023/07/16 09:02:38;;;;;;;10.30;6.40;;;;;;;;;;5085603;28;20027;-58
2023/07/16 09:05:04;;;;;;;9.55;6.05;;;;;;;;;;5090298;28;20023;-60
2023/07/16 09:07:31;;;;;;;11.98;6.72;;;;;;;;;;5085383;28;20091;-60
2023/07/16 09:10:00;;;;;;;11.38;7.97;;;;;;;;;;5090550;28;20031;-60
2023/07/16 09:12:25;;;;;;;10.77;6.90;;;;;;;;;;5106427;27;20020;-60
2023/07/16 09:14:50;;;;;;;8.73;6.38;;;;;;;;;;5089529;28;20661;-61
2023/07/16 09:17:24;;;;;;;10.77;6.10;;;;;;;;;;5086133;28;20104;-59
2023/07/16 09:19:52;;;;;;;9.93;6.28;;;;;;;;;;5092436;28;20023;-59
2023/07/16 09:22:18;;;;;;;11.73;6.65;;;;;;;;;;5084156;28;20016;-61
2023/07/16 09:24:47;;;;;;;12.30;8.60;;;;;;;;;;5084104;28;20016;-59
2023/07/16 09:27:12;;;;;;;8.40;6.80;;;;;;;;;;5088090;28;20024;-61
2023/07/16 09:29:40;;;;;;;9.93;6.35;;;;;;;;;;5089879;28;20052;-59
2023/07/16 09:32:05;;;;;;;10.43;5.90;;;;;;;;;;5085420;28;20019;-59
2023/07/16 09:34:31;;;;;;;12.90;6.20;;;;;;;;;;5085407;28;20038;-59
2023/07/16 09:36:57;;;;;;;10.65;6.53;;;;;;;;;;5091388;28;20745;-60
2023/07/16 09:39:26;;;;;;;12.43;6.50;;;;;;;;;;5083776;28;20032;-58
2023/07/16 09:41:51;;;;;;;9.85;6.00;;;;;;;;;;5088213;28;21514;-59
2023/07/16 09:44:17;;;;;;;11.40;6.22;;;;;;;;;;5089777;28;20015;-59
2023/07/16 09:46:42;;;;;;;10.50;6.55;;;;;;;;;;5087346;28;20024;-58
2023/07/16 09:49:08;;;;;;;11.65;6.35;;;;;;;;;;5091831;27;20085;-60
2023/07/16 09:51:35;;;;;;;12.82;7.25;;;;;;;;;;5091437;28;20030;-60
2023/07/16 09:54:04;;;;;;;7.97;5.88;;;;;;;;;;5090986;28;20032;-60
2023/07/16 09:56:34;;;;;;;9.15;5.20;;;;;;;;;;5087581;28;20031;-60
2023/07/16 09:59:01;;;;;;;9.10;4.90;;;;;;;;;;5089504;28;20023;-59
2023/07/16 10:01:28;;;;;;;12.02;5.85;;;;;;;;;;5094528;28;20091;-59
2023/07/16 10:03:54;;;;;;;12.30;6.55;;;;;;;;;;5087408;28;20024;-59
2023/07/16 10:06:19;;;;;;;11.80;7.23;;;;;;;;;;5091681;28;20019;-59
2023/07/16 10:08:50;;;;;;;11.77;6.80;;;;;;;;;;5085959;28;20019;-59
2023/07/16 10:11:18;;;;;;;10.60;6.70;;;;;;;;;;5090478;28;20257;-59
2023/07/16 10:13:48;;;;;;;9.75;6.45;;;;;;;;;;5084523;28;20721;-60
2023/07/16 10:16:23;;;;;;;9.00;6.43;;;;;;;;;;5086491;28;20016;-59
2023/07/16 10:18:55;;;;;;;10.00;6.03;;;;;;;;;;5093333;28;20059;-59
2023/07/16 10:21:23;;;;;;;9.50;5.90;;;;;;;;;;5084820;28;20019;-58
2023/07/16 10:23:56;;;;;;;8.27;5.45;;;;;;;;;;5093785;28;20219;-59
2023/07/16 10:26:28;;;;;;;9.00;5.80;;;;;;;;;;5089756;28;20023;-60
2023/07/16 10:28:54;;;;;;;10.65;6.03;;;;;;;;;;5088313;28;20062;-60
2023/07/16 10:31:23;;;;;;;8.57;5.80;;;;;;;;;;5096818;28;20918;-60
2023/07/16 10:33:48;;;;;;;;;;;;;;;;;;5090332;28;20019;-60
2023/07/16 10:36:17;;;;;;;8.75;6.00;;;;;;;;;;5097116;28;19908;-58
2023/07/16 10:38:45;;;;;;;8.38;5.90;;;;;;;;;;5086802;28;20038;-60
2023/07/16 10:41:10;;;;;;;9.18;6.15;;;;;;;;;;5096931;28;20022;-59
2023/07/16 10:43:35;;;;;;;11.93;7.07;;;;;;;;;;5092246;28;20024;-59
2023/07/16 10:46:03;;;;;;;11.60;6.88;;;;;;;;;;5090557;28;20028;-59
2023/07/16 10:48:29;;;;;;;9.77;6.50;;;;;;;;;;5092532;28;20076;-60
2023/07/16 10:50:55;;;;;;;9.18;6.50;;;;;;;;;;5084912;28;20032;-60
2023/07/16 10:53:22;;;;;;;9.63;7.00;;;;;;;;;;5090015;28;20557;-60
2023/07/16 10:55:49;;;;;;;8.57;6.22;;;;;;;;;;5081340;28;20012;-59
2023/07/16 10:58:15;;;;;;;13.57;6.50;;;;;;;;;;5095714;28;20084;-59
2023/07/16 11:00:40;;;;;;;12.00;6.80;;;;;;;;;;5086141;28;20032;-59
2023/07/16 11:03:06;;;;;;;9.77;6.45;;;;;;;;;;5088451;28;20525;-59
2023/07/16 11:05:31;;;;;;;9.15;6.50;;;;;;;;;;5082650;28;20425;-58
2023/07/16 11:07:56;;;;;;;9.83;6.73;;;;;;;;;;5082223;28;20015;-59
2023/07/16 11:10:23;;;;;;;8.40;6.55;;;;;;;;;;5087004;28;20032;-60
2023/07/16 11:12:52;;;;;;;10.45;6.30;;;;;;;;;;5087111;28;20465;-59
2023/07/16 11:15:18;;;;;;;11.45;6.20;;;;;;;;;;5087676;28;20015;-59
2023/07/16 11:17:48;;;;;;;12.27;6.30;;;;;;;;;;5083918;28;20086;-60
2023/07/16 11:20:13;;;;;;;10.38;6.18;;;;;;;;;;5092567;28;20253;-60
2023/07/16 11:22:38;;;;;;;10.68;6.53;;;;;;;;;;5082765;28;20016;-58
2023/07/16 11:25:10;;;;;;;8.45;6.10;;;;;;;;;;5087857;28;20024;-59
2023/07/16 11:27:35;;;;;;;10.77;6.65;;;;;;;;;;5086547;28;20062;-59
2023/07/16 11:30:01;;;;;;;11.30;6.40;;;;;;;;;;5086212;28;20063;-59
2023/07/16 11:32:33;;;;;;;10.50;6.37;;;;;;;;;;5076930;28;20076;-60
2023/07/16 11:34:59;;;;;;;10.85;6.53;;;;;;;;;;5086481;28;20026;-60
2023/07/16 11:37:25;;;;;;;8.40;5.78;;;;;;;;;;5090366;28;20022;-59
2023/07/16 11:39:50;;;;;;;10.63;6.57;;;;;;;;;;5085737;28;20381;-58
2023/07/16 11:42:23;;;;;;;10.17;6.10;;;;;;;;;;5091399;28;20989;-59
2023/07/16 11:44:49;;;;;;;9.82;5.80;;;;;;;;;;5087419;28;20877;-60
2023/07/16 11:47:14;;;;;;;9.63;5.72;;;;;;;;;;5086020;28;20030;-59
2023/07/16 11:49:40;;;;;;;9.70;6.43;;;;;;;;;;5090003;28;20035;-59
2023/07/16 11:52:05;;;;;;;8.27;6.03;;;;;;;;;;5083829;28;20042;-59
2023/07/16 11:54:30;;;;;;;9.15;5.95;;;;;;;;;;5088461;28;20467;-59
2023/07/16 11:56:55;;;;;;;10.27;6.43;;;;;;;;;;5088684;28;20753;-59
2023/07/16 11:59:21;;;;;;;10.87;6.10;;;;;;;;;;5088030;28;20031;-60
2023/07/16 12:01:49;;;;;;;9.90;6.07;;;;;;;;;;5085969;28;20019;-60
2023/07/16 12:04:16;;;;;;;9.25;5.75;;;;;;;;;;5085730;28;20682;-60
2023/07/16 12:06:41;;;;;;;10.07;6.18;;;;;;;;;;5089019;28;20024;-60
2023/07/16 12:09:06;;;;;;;10.03;6.23;;;;;;;;;;5086635;28;21299;-60
2023/07/16 12:11:34;;;;;;;11.23;6.13;;;;;;;;;;5091634;28;20015;-59
2023/07/16 12:13:59;;;;;;;11.10;6.47;;;;;;;;;;5083406;28;20065;-59
2023/07/16 12:16:27;;;;;;;11.60;6.27;;;;;;;;;;5086951;28;20023;-59
2023/07/16 12:18:54;;;;;;;10.77;6.22;;;;;;;;;;5087517;28;20569;-60
2023/07/16 12:21:27;;;;;;;9.02;6.30;;;;;;;;;;5087695;28;20080;-59
2023/07/16 12:23:52;;;;;;;10.27;6.00;;;;;;;;;;5082381;28;20027;-59
2023/07/16 12:26:18;;;;;;;10.17;5.80;;;;;;;;;;5084977;28;20012;-59
2023/07/16 12:28:43;;;;;;;8.60;5.93;;;;;;;;;;5089701;28;20691;-60
2023/07/16 12:31:08;;;;;;;9.50;6.00;;;;;;;;;;5085189;28;20008;-58
2023/07/16 12:33:36;;;;;;;10.90;6.33;;;;;;;;;;5093034;28;20027;-58
2023/07/16 12:36:03;;;;;;;8.98;6.05;;;;;;;;;;5083111;28;20043;-60
2023/07/16 12:38:29;;;;;;;10.02;5.85;;;;;;;;;;5086888;28;20020;-60
2023/07/16 12:40:54;;;;;;;9.53;6.30;;;;;;;;;;5092131;28;20022;-59
2023/07/16 12:43:19;;;;;;;10.20;6.47;;;;;;;;;;5084099;28;20608;-60
2023/07/16 12:45:47;;;;;;;11.50;6.73;;;;;;;;;;5085544;28;20051;-60
2023/07/16 12:48:12;;;;;;;9.95;6.50;;;;;;;;;;5083890;28;20024;-61
2023/07/16 12:50:37;;;;;;;9.43;6.20;;;;;;;;;;5089965;28;20027;-58
2023/07/16 12:53:05;;;;;;;8.77;6.23;;;;;;;;;;5083452;28;20024;-60
2023/07/16 12:55:33;;;;;;;10.02;6.20;;;;;;;;;;5087893;28;20023;-59
2023/07/16 12:57:59;;;;;;;8.77;6.35;;;;;;;;;;5084927;28;20019;-61
2023/07/16 13:00:24;;;;;;;10.38;6.60;;;;;;;;;;5085984;28;20023;-59
2023/07/16 13:02:49;;;;;;;10.10;6.30;;;;;;;;;;5091683;28;20027;-58
2023/07/16 13:05:14;;;;;;;8.47;5.83;;;;;;;;;;5086944;28;20019;-60
2023/07/16 13:07:40;;;;;;;10.40;6.57;;;;;;;;;;5084571;28;21374;-61
2023/07/16 13:10:05;;;;;;;8.60;6.03;;;;;;;;;;5085664;28;20093;-58
2023/07/16 13:12:31;;;;;;;7.93;5.35;;;;;;;;;;5089098;28;20257;-60
2023/07/16 13:14:56;;;;;;;9.10;5.45;;;;;;;;;;5087404;28;20118;-60
2023/07/16 13:17:21;;;;;;;10.47;5.80;;;;;;;;;;5086360;28;20040;-58
2023/07/16 13:19:47;;;;;;;9.77;5.97;;;;;;;;;;5077621;28;20739;-59
2023/07/16 13:22:12;;;;;;;11.83;5.83;;;;;;;;;;5087308;28;20032;-62
2023/07/16 13:24:38;;;;;;;10.02;6.07;;;;;;;;;;5091956;28;20027;-59
2023/07/16 13:27:05;;;;;;;9.13;5.63;;;;;;;;;;5086579;28;20020;-59
2023/07/16 13:29:33;;;;;;;7.65;5.63;;;;;;;;;;5095181;28;20020;-60
2023/07/16 13:31:58;;;;;;;9.07;6.13;;;;;;;;;;5084284;28;20023;-59
2023/07/16 13:34:23;;;;;;;7.93;5.80;;;;;;;;;;5091629;28;20024;-60
2023/07/16 13:36:51;;;;;;;9.03;5.80;;;;;;;;;;5084750;28;20069;-61
2023/07/16 13:39:16;;;;;;;13.88;6.00;;;;;;;;;;5093392;28;20023;-62
2023/07/16 13:41:42;;;;;;;11.95;5.95;;;;;;;;;;5084275;28;20478;-64
2023/07/16 13:44:07;;;;;;;8.70;5.83;;;;;;;;;;5089709;28;20098;-58
2023/07/16 13:46:37;;;;;;;9.00;5.70;;;;;;;;;;5082620;28;20023;-60
2023/07/16 13:49:02;;;;;;;9.18;5.97;;;;;;;;;;5091954;28;20035;-60
2023/07/16 13:51:30;;;;;;;10.30;6.27;;;;;;;;;;5094525;28;20159;-60
2023/07/16 13:53:55;;;;;;;9.65;6.78;;;;;;;;;;5090520;28;20085;-59
2023/07/16 13:56:20;;;;;;;8.83;6.37;;;;;;;;;;5089163;28;20520;-60
2023/07/16 13:58:45;;;;;;;11.27;6.10;;;;;;;;;;5083597;28;20024;-58
2023/07/16 14:01:11;;;;;;;11.27;6.03;;;;;;;;;;5091016;28;20658;-58
2023/07/16 14:03:36;;;;;;;10.90;5.70;;;;;;;;;;5091475;28;20012;-59
2023/07/16 14:06:01;;;;;;;10.25;6.15;;;;;;;;;;5068583;28;20077;-60
2023/07/16 14:08:30;;;;;;;8.30;5.32;;;;;;;;;;5090529;28;20020;-60
2023/07/16 14:10:55;;;;;;;9.70;5.85;;;;;;;;;;5088799;28;20055;-59
2023/07/16 14:13:21;;;;;;;8.20;5.17;;;;;;;;;;5090524;28;20214;-60
2023/07/16 14:15:48;;;;;;;8.60;5.87;;;;;;;;;;5086282;28;20043;-58
2023/07/16 14:18:13;;;;;;;9.05;5.85;;;;;;;;;;5089063;28;20044;-59
2023/07/16 14:20:39;;;;;;;11.40;5.65;;;;;;;;;;5091133;28;20075;-60
2023/07/16 14:23:04;;;;;;;8.85;5.65;;;;;;;;;;5087931;28;20261;-59
2023/07/16 14:25:29;;;;;;;9.63;5.70;;;;;;;;;;5090887;28;20273;-58
2023/07/16 14:27:55;;;;;;;7.90;5.77;;;;;;;;;;5090673;27;20278;-60